ICE2712 EDDH-EDDP
Flight info
| Callsign | ICE2712 |
|---|---|
| Flight time | N/A |
| Altitude | 23000 |
| Route | AMLUH2G/33 AMLUH M852 DENIX Z113 SAS Z88 UPDAT/N0379F270 T236 ADMOS/N0358F230 T959 KOJEC KOJEC1R |
| Aircraft | A20N/M-SDE2E3FGHIRWXY/LB1 |
Departure
| Time | 2026-04-30 20:11 |
|---|---|
| Airport | Hamburg Helmut Schmidt Airport (EDDH) |
Arrival
| Time | N/A |
|---|---|
| Airport | Leipzig/Halle Airport (EDDP) |
| Time | Latitude | Longitude | Altitude | Speed | Heading |
|---|---|---|---|---|---|
| 2026-04-30 19:34 | 53.62972 | 10.00269 | 41 ft | 0 kts | 120° |
| 2026-04-30 19:55 | 53.62977 | 10.00253 | 46 ft | 2 kts | 122° |
| 2026-04-30 19:55 | 53.62986 | 10.00233 | 43 ft | 2 kts | 140° |
| 2026-04-30 19:55 | 53.62999 | 10.00219 | 41 ft | 2 kts | 159° |
| 2026-04-30 19:56 | 53.63013 | 10.00213 | 32 ft | 2 kts | 180° |
| 2026-04-30 19:56 | 53.63028 | 10.00216 | 33 ft | 2 kts | 203° |
| 2026-04-30 19:56 | 53.63030 | 10.00217 | 31 ft | 0 kts | 207° |
| 2026-04-30 20:00 | 53.63007 | 10.00196 | 45 ft | 7 kts | 209° |
| 2026-04-30 20:00 | 53.62951 | 10.00139 | 45 ft | 12 kts | 213° |
| 2026-04-30 20:00 | 53.62871 | 10.00068 | 45 ft | 14 kts | 184° |
| 2026-04-30 20:00 | 53.62774 | 10.00134 | 43 ft | 17 kts | 151° |
| 2026-04-30 20:01 | 53.62605 | 10.00256 | 42 ft | 10 kts | 194° |
| 2026-04-30 20:01 | 53.62568 | 10.00193 | 42 ft | 0 kts | 236° |
| 2026-04-30 20:08 | 53.62554 | 10.00151 | 40 ft | 8 kts | 245° |
| 2026-04-30 20:08 | 53.62555 | 10.00034 | 40 ft | 12 kts | 297° |
| 2026-04-30 20:08 | 53.62606 | 9.99965 | 43 ft | 0 kts | 331° |
| 2026-04-30 20:10 | 53.62672 | 9.99907 | 45 ft | 39 kts | 333° |
| 2026-04-30 20:10 | 53.63129 | 9.99519 | 48 ft | 105 kts | 333° |
| 2026-04-30 20:11 | 53.64912 | 9.97982 | 581 ft | 153 kts | 334° |
| 2026-04-30 20:11 | 53.65870 | 9.97149 | 1176 ft | 157 kts | 335° |
| 2026-04-30 20:11 | 53.66857 | 9.96311 | 1828 ft | 161 kts | 335° |
| 2026-04-30 20:12 | 53.69116 | 9.94756 | 2964 ft | 196 kts | 351° |
| 2026-04-30 20:12 | 53.70541 | 9.94648 | 3492 ft | 217 kts | 3° |
| 2026-04-30 20:12 | 53.72082 | 9.94713 | 4338 ft | 222 kts | 8° |
| 2026-04-30 20:13 | 53.73510 | 9.95602 | 5181 ft | 220 kts | 40° |
| 2026-04-30 20:13 | 53.74441 | 9.97572 | 6196 ft | 213 kts | 70° |
| 2026-04-30 20:13 | 53.74656 | 9.99991 | 7136 ft | 214 kts | 97° |
| 2026-04-30 20:13 | 53.74368 | 10.02486 | 8004 ft | 219 kts | 105° |
| 2026-04-30 20:14 | 53.73793 | 10.04903 | 8873 ft | 224 kts | 116° |
| 2026-04-30 20:14 | 53.72999 | 10.07210 | 9607 ft | 238 kts | 118° |
| 2026-04-30 20:14 | 53.72133 | 10.09749 | 10079 ft | 261 kts | 118° |
| 2026-04-30 20:14 | 53.71197 | 10.12534 | 10370 ft | 280 kts | 117° |
| 2026-04-30 20:15 | 53.70240 | 10.15395 | 10439 ft | 279 kts | 117° |
| 2026-04-30 20:15 | 53.69169 | 10.18189 | 10457 ft | 297 kts | 128° |
| 2026-04-30 20:15 | 53.67510 | 10.20594 | 10452 ft | 329 kts | 147° |
| 2026-04-30 20:15 | 53.65383 | 10.22016 | 10454 ft | 332 kts | 162° |
| 2026-04-30 20:16 | 53.63182 | 10.22994 | 10445 ft | 321 kts | 162° |
| 2026-04-30 20:16 | 53.61064 | 10.23931 | 10433 ft | 306 kts | 162° |
| 2026-04-30 20:16 | 53.59032 | 10.24797 | 10433 ft | 300 kts | 165° |
| 2026-04-30 20:16 | 53.56986 | 10.25479 | 10558 ft | 301 kts | 166° |
| 2026-04-30 20:17 | 53.54874 | 10.26165 | 10678 ft | 319 kts | 166° |
| 2026-04-30 20:17 | 53.52638 | 10.26894 | 11078 ft | 338 kts | 166° |
| 2026-04-30 20:17 | 53.50305 | 10.27653 | 11899 ft | 343 kts | 166° |
| 2026-04-30 20:17 | 53.47946 | 10.28420 | 12726 ft | 348 kts | 166° |
| 2026-04-30 20:18 | 53.45543 | 10.29204 | 13549 ft | 353 kts | 166° |
| 2026-04-30 20:18 | 53.43139 | 10.29991 | 14352 ft | 358 kts | 165° |
| 2026-04-30 20:18 | 53.40673 | 10.30798 | 15067 ft | 363 kts | 165° |
| 2026-04-30 20:18 | 53.38174 | 10.31616 | 15774 ft | 368 kts | 165° |
| 2026-04-30 20:19 | 53.35635 | 10.32447 | 16472 ft | 373 kts | 165° |
| 2026-04-30 20:19 | 53.33936 | 10.33002 | 16926 ft | 377 kts | 165° |
| 2026-04-30 20:19 | 53.30454 | 10.34137 | 17853 ft | 383 kts | 166° |
| 2026-04-30 20:19 | 53.27845 | 10.34987 | 18525 ft | 388 kts | 166° |
| 2026-04-30 20:20 | 53.25163 | 10.35859 | 19155 ft | 393 kts | 166° |
| 2026-04-30 20:20 | 53.22465 | 10.36734 | 19771 ft | 397 kts | 166° |
| 2026-04-30 20:20 | 53.19735 | 10.37619 | 20388 ft | 401 kts | 166° |
| 2026-04-30 20:20 | 53.17013 | 10.38500 | 20978 ft | 405 kts | 166° |
| 2026-04-30 20:21 | 53.14218 | 10.39404 | 21578 ft | 409 kts | 166° |